Knossos Palace — SYQO — position and weather

sailwx.info

Track history (hours):
 
Tides and Currents Weather Stations Pressure Air Temp Water Temp Dewpoint Dewpoint Depression Visibility Wind Speed Wind Dir Waves Ship Positions

Knossos Palace

Last reported at 2014-Oct-31 04:21 UTC. Time now 2014-Oct-31 16:39 UTC.
Position N 35°21' E 025°09'.

Length 214 m; beam 26.4 m; draft 7.3 m.

Type: Passenger vessel. MMSI: 237641000.

Date/timePositionNaut miles runAvg speedWind from/ knotsBaromVisibWave heightAir tempDewpointWater temp
2014-Oct-31 04:21N 35°21' E 025°09'1215.4
2014-Oct-31 03:33N 35°32' E 025°02'1919.2
2014-Oct-31 02:34N 35°48' E 024°50'2019.5
2014-Oct-31 01:33N 36°05' E 024°38'1919.2
2014-Oct-31 00:34N 36°22' E 024°26'1918.9
2014-Oct-30 23:33N 36°38' E 024°15'1919.3
2014-Oct-30 22:34N 36°56' E 024°05'4219.1
2014-Oct-30 20:23N 37°34' E 023°45'1619.2
2014-Oct-30 19:34N 37°49' E 023°38'8 7.5
2014-Oct-30 18:33N 37°57' E 023°38'0 0.0
2014-Oct-30 17:31N 37°57' E 023°38'0 0.0
2014-Oct-30 16:31N 37°57' E 023°38'0 0.0
2014-Oct-30 15:31N 37°57' E 023°38'0 0.0
2014-Oct-30 14:31N 37°57' E 023°38'0 0.0
2014-Oct-30 13:31N 37°57' E 023°38'0 0.0
2014-Oct-30 12:31N 37°57' E 023°38'0 0.0
2014-Oct-30 11:34N 37°57' E 023°38'0 0.0
2014-Oct-30 10:33N 37°57' E 023°38'0 0.0
2014-Oct-30 09:33N 37°57' E 023°38'0 0.1
2014-Oct-30 08:31N 37°57' E 023°38'0 0.0
2014-Oct-30 07:31N 37°57' E 023°38'0 0.1
2014-Oct-30 06:31N 37°57' E 023°38'0 0.0
2014-Oct-30 05:31N 37°57' E 023°38'1 0.6
2014-Oct-30 04:33N 37°56' E 023°37'1716.5
2014-Oct-30 03:33N 37°41' E 023°46'4119.6
2014-Oct-30 01:29N 37°03' E 024°03'1819.1
2014-Oct-30 00:33N 36°46' E 024°11'1919.7
2014-Oct-29 23:34N 36°29' E 024°22'2019.7
2014-Oct-29 22:33N 36°12' E 024°34'1919.3
2014-Oct-29 21:33N 35°55' E 024°46'2020.0
2014-Oct-29 20:33N 35°38' E 024°58'1918.1
2014-Oct-29 19:31N 35°21' E 025°09'0 0.1
2014-Oct-29 18:08N 35°21' E 025°09'0 0.0
2014-Oct-29 04:28N 35°21' E 025°09'1415.4
2014-Oct-29 03:33N 35°33' E 025°01'1918.7
2014-Oct-29 02:33N 35°49' E 024°49'1918.9
2014-Oct-29 01:33N 36°06' E 024°38'1918.7
2014-Oct-29 00:33N 36°22' E 024°26'1818.3
2014-Oct-28 23:33N 36°38' E 024°14'1919.1
2014-Oct-28 22:33N 36°55' E 024°05'2019.5
2014-Oct-28 21:31N 37°14' E 023°56'2219.1
2014-Oct-28 20:21N 37°34' E 023°45'1519.3
2014-Oct-28 19:33N 37°49' E 023°38'8 7.8
2014-Oct-28 18:33N 37°57' E 023°38'0 0.0
2014-Oct-28 17:31N 37°57' E 023°38'0 0.0
2014-Oct-28 16:31N 37°57' E 023°38'0 0.0
2014-Oct-28 15:31N 37°57' E 023°38'0 0.0
2014-Oct-28 14:31N 37°57' E 023°38'0 0.0
2014-Oct-28 13:31N 37°57' E 023°38'0 0.0
2014-Oct-28 12:31N 37°57' E 023°38'0 0.0
2014-Oct-28 11:31N 37°57' E 023°38'0 0.0
2014-Oct-28 10:31N 37°57' E 023°38'0 0.0
2014-Oct-28 09:31N 37°57' E 023°38'0 0.0
2014-Oct-28 08:31N 37°57' E 023°38'0 0.0
2014-Oct-28 07:31N 37°57' E 023°38'0 0.0
2014-Oct-28 06:31N 37°57' E 023°38'0 0.0
2014-Oct-28 05:31N 37°57' E 023°38'0 0.0
2014-Oct-28 04:34N 37°57' E 023°38'1515.2
2014-Oct-28 03:33N 37°42' E 023°45'2920.0
2014-Oct-28 02:08N 37°16' E 023°58'1120.0
2014-Oct-28 01:33N 37°05' E 024°03'1919.0
2014-Oct-28 00:33N 36°47' E 024°11'2019.8
2014-Oct-27 23:32N 36°29' E 024°21'2020.1
2014-Oct-27 22:33N 36°12' E 024°33'2020.0
2014-Oct-27 21:33N 35°54' E 024°46'2019.9
2014-Oct-27 20:33N 35°37' E 024°59'18 1.2
2014-Oct-27 04:33N 35°21' E 025°09'1615.5
2014-Oct-27 03:32N 35°35' E 025°00'1818.4
2014-Oct-27 02:33N 35°50' E 024°49'1918.7
2014-Oct-27 01:33N 36°06' E 024°37'1818.3
2014-Oct-27 00:33N 36°22' E 024°25'1918.5
2014-Oct-26 23:33N 36°38' E 024°14'1918.8
2014-Oct-26 22:33N 36°56' E 024°05'4319.0
2014-Oct-26 20:20N 37°35' E 023°45'1519.2
2014-Oct-26 19:33N 37°49' E 023°38'8 7.7
2014-Oct-26 18:33N 37°57' E 023°38'0 0.0
2014-Oct-26 17:33N 37°57' E 023°38'0 0.0
2014-Oct-26 16:33N 37°57' E 023°38'0 0.0
2014-Oct-26 15:33N 37°57' E 023°38'0 0.0
2014-Oct-26 14:33N 37°57' E 023°38'0 0.0
2014-Oct-26 13:33N 37°57' E 023°38'0 0.0
2014-Oct-26 12:33N 37°57' E 023°38'0 0.0
2014-Oct-26 11:33N 37°57' E 023°38'0 0.0
2014-Oct-26 10:33N 37°57' E 023°38'0 0.0
2014-Oct-26 09:33N 37°57' E 023°38'0 0.0
2014-Oct-26 08:33N 37°57' E 023°38'0 0.0
2014-Oct-26 07:33N 37°57' E 023°38'0 0.0
2014-Oct-26 06:33N 37°57' E 023°38'0 0.0
2014-Oct-26 05:33N 37°57' E 023°38'1 1.1
2014-Oct-26 04:33N 37°56' E 023°37'1515.4
2014-Oct-26 03:33N 37°42' E 023°45'3717.9
2014-Oct-26 01:30N 37°08' E 024°01'1717.7
2014-Oct-26 00:33N 36°52' E 024°08'1818.0
2014-Oct-25 23:33N 36°35' E 024°17'1818.1
2014-Oct-25 22:33N 36°19' E 024°28'1817.8
2014-Oct-25 21:33N 36°04' E 024°39'1717.2
2014-Oct-25 20:33N 35°49' E 024°50'1716.9
2014-Oct-25 19:33N 35°35' E 025°00'5 0.3
2014-Oct-25 02:33N 35°39' E 024°57'1919.4
2014-Oct-25 01:33N 35°56' E 024°45'1918.9
2014-Oct-25 00:33N 36°12' E 024°33'1918.7
2014-Oct-24 23:33N 36°28' E 024°21'1918.6
2014-Oct-24 22:33N 36°44' E 024°11'1918.5
2014-Oct-24 21:33N 37°02' E 024°03'2919.5
2014-Oct-24 20:05N 37°28' E 023°49'1119.9
2014-Oct-24 19:33N 37°38' E 023°43'1818.5
2014-Oct-24 18:33N 37°55' E 023°37'2 1.6
2014-Oct-24 17:33N 37°57' E 023°38'0 0.0
2014-Oct-24 16:33N 37°57' E 023°38'0 0.0
2014-Oct-24 15:33N 37°57' E 023°38'0 0.0
2014-Oct-24 14:33N 37°57' E 023°38'0 0.0
2014-Oct-24 13:33N 37°57' E 023°38'0 0.0
2014-Oct-24 12:33N 37°57' E 023°38'0 0.0
2014-Oct-24 11:33N 37°57' E 023°38'0 0.0
2014-Oct-24 10:33N 37°57' E 023°38'0 0.0
2014-Oct-24 09:33N 37°57' E 023°38'0 0.0
2014-Oct-24 08:33N 37°57' E 023°38'0 0.0
2014-Oct-24 07:33N 37°57' E 023°38'0 0.0
2014-Oct-24 06:33N 37°57' E 023°38'0 0.0
2014-Oct-24 05:33N 37°57' E 023°38'0 0.0
2014-Oct-24 04:33N 37°57' E 023°38'0 0.0
2014-Oct-24 03:33N 37°57' E 023°38'1010.5
2014-Oct-24 02:33N 37°47' E 023°43'4420.8
2014-Oct-24 00:27N 37°06' E 024°02'2020.9
2014-Oct-23 23:30N 36°47' E 024°11'2020.5
2014-Oct-23 22:33N 36°30' E 024°21'2120.6
2014-Oct-23 21:33N 36°12' E 024°34'2020.0
2014-Oct-23 20:33N 35°54' E 024°46'2019.9
2014-Oct-23 19:33N 35°37' E 024°59'19 2.3
2014-Oct-23 11:31N 35°21' E 025°09'0 0.0
2014-Oct-23 10:32N 35°21' E 025°09'0 0.0
2014-Oct-23 09:22N 35°21' E 025°09'0 0.0
2014-Oct-23 08:29N 35°21' E 025°09'0 0.0
2014-Oct-23 07:15N 35°21' E 025°09'0 0.0
2014-Oct-23 06:33N 35°21' E 025°09'0 0.0
2014-Oct-23 05:33N 35°21' E 025°09'0 0.0
2014-Oct-23 04:27N 35°21' E 025°09'0 0.0
2014-Oct-23 03:33N 35°21' E 025°09'1212.5
2014-Oct-23 02:33N 35°32' E 025°02'1919.0
2014-Oct-23 01:33N 35°48' E 024°50'1919.1
2014-Oct-23 00:33N 36°05' E 024°39'2019.8
2014-Oct-22 23:33N 36°22' E 024°27'2019.5
2014-Oct-22 22:33N 36°39' E 024°15'1919.2
2014-Oct-22 21:33N 36°57' E 024°05'4419.1
2014-Oct-22 19:15N 37°38' E 023°44'1318.5
2014-Oct-22 18:33N 37°49' E 023°37'7 7.4
2014-Oct-22 17:33N 37°57' E 023°38'0 0.0
2014-Oct-22 16:31N 37°57' E 023°38'0 0.0
2014-Oct-22 15:31N 37°57' E 023°38'0 0.0
2014-Oct-22 14:31N 37°57' E 023°38'0 0.0
2014-Oct-22 13:31N 37°57' E 023°38'0 0.0
2014-Oct-22 12:31N 37°57' E 023°38'0 0.0
2014-Oct-22 11:31N 37°57' E 023°38'0 0.0
2014-Oct-22 10:31N 37°57' E 023°38'0 0.0
2014-Oct-22 09:31N 37°57' E 023°38'0 0.0
2014-Oct-22 08:31N 37°57' E 023°38'0 0.0
2014-Oct-22 07:31N 37°57' E 023°38'0 0.0
2014-Oct-22 06:31N 37°57' E 023°38'0 0.0
2014-Oct-22 05:31N 37°57' E 023°38'0 0.0
2014-Oct-22 04:31N 37°57' E 023°38'0 0.1
2014-Oct-22 03:34N 37°57' E 023°38'1413.9
2014-Oct-22 02:33N 37°43' E 023°44'3919.5
2014-Oct-22 00:33N 37°07' E 024°01'2120.1
2014-Oct-21 23:31N 36°47' E 024°11'1920.0
2014-Oct-21 22:33N 36°30' E 024°21'2019.8
2014-Oct-21 21:33N 36°13' E 024°33'2020.1
2014-Oct-21 20:33N 35°55' E 024°45'2020.4
2014-Oct-21 19:33N 35°38' E 024°58'1918.8
2014-Oct-21 18:33N 35°21' E 025°09'0 0.3
2014-Oct-21 17:33N 35°21' E 025°09'0 0.0
2014-Oct-21 16:34N 35°21' E 025°09'0 0.0
2014-Oct-21 15:33N 35°21' E 025°09'0 0.0
2014-Oct-21 14:33N 35°21' E 025°09'0 0.0
2014-Oct-21 13:05N 35°21' E 025°09'0 0.0
2014-Oct-21 11:06N 35°21' E 025°09'  
Track history (hours):
 
Tides and Currents Weather Stations Pressure Air Temp Water Temp Dewpoint Dewpoint Depression Visibility Wind Speed Wind Dir Waves Ship Positions

Knossos Palace

Last reported at 2014-Oct-31 04:21 UTC. Time now 2014-Oct-31 16:39 UTC.
Position N 35°21' E 025°09'.

Length 214 m; beam 26.4 m; draft 7.3 m.

Type: Passenger vessel. MMSI: 237641000.

Date/timePositionNaut miles runAvg speedWind from/ knotsBaromVisibWave heightAir tempDewpointWater temp
2014-Oct-31 04:21N 35°21' E 025°09'1215.4
2014-Oct-31 03:33N 35°32' E 025°02'1919.2
2014-Oct-31 02:34N 35°48' E 024°50'2019.5
2014-Oct-31 01:33N 36°05' E 024°38'1919.2
2014-Oct-31 00:34N 36°22' E 024°26'1918.9
2014-Oct-30 23:33N 36°38' E 024°15'1919.3
2014-Oct-30 22:34N 36°56' E 024°05'4219.1
2014-Oct-30 20:23N 37°34' E 023°45'1619.2
2014-Oct-30 19:34N 37°49' E 023°38'8 7.5
2014-Oct-30 18:33N 37°57' E 023°38'0 0.0
2014-Oct-30 17:31N 37°57' E 023°38'0 0.0
2014-Oct-30 16:31N 37°57' E 023°38'0 0.0
2014-Oct-30 15:31N 37°57' E 023°38'0 0.0
2014-Oct-30 14:31N 37°57' E 023°38'0 0.0
2014-Oct-30 13:31N 37°57' E 023°38'0 0.0
2014-Oct-30 12:31N 37°57' E 023°38'0 0.0
2014-Oct-30 11:34N 37°57' E 023°38'0 0.0
2014-Oct-30 10:33N 37°57' E 023°38'0 0.0
2014-Oct-30 09:33N 37°57' E 023°38'0 0.1
2014-Oct-30 08:31N 37°57' E 023°38'0 0.0
2014-Oct-30 07:31N 37°57' E 023°38'0 0.1
2014-Oct-30 06:31N 37°57' E 023°38'0 0.0
2014-Oct-30 05:31N 37°57' E 023°38'1 0.6
2014-Oct-30 04:33N 37°56' E 023°37'1716.5
2014-Oct-30 03:33N 37°41' E 023°46'4119.6
2014-Oct-30 01:29N 37°03' E 024°03'1819.1
2014-Oct-30 00:33N 36°46' E 024°11'1919.7
2014-Oct-29 23:34N 36°29' E 024°22'2019.7
2014-Oct-29 22:33N 36°12' E 024°34'1919.3
2014-Oct-29 21:33N 35°55' E 024°46'2020.0
2014-Oct-29 20:33N 35°38' E 024°58'1918.1
2014-Oct-29 19:31N 35°21' E 025°09'0 0.1
2014-Oct-29 18:08N 35°21' E 025°09'0 0.0
2014-Oct-29 04:28N 35°21' E 025°09'1415.4
2014-Oct-29 03:33N 35°33' E 025°01'1918.7
2014-Oct-29 02:33N 35°49' E 024°49'1918.9
2014-Oct-29 01:33N 36°06' E 024°38'1918.7
2014-Oct-29 00:33N 36°22' E 024°26'1818.3
2014-Oct-28 23:33N 36°38' E 024°14'1919.1
2014-Oct-28 22:33N 36°55' E 024°05'2019.5
2014-Oct-28 21:31N 37°14' E 023°56'2219.1
2014-Oct-28 20:21N 37°34' E 023°45'1519.3
2014-Oct-28 19:33N 37°49' E 023°38'8 7.8
2014-Oct-28 18:33N 37°57' E 023°38'0 0.0
2014-Oct-28 17:31N 37°57' E 023°38'0 0.0
2014-Oct-28 16:31N 37°57' E 023°38'0 0.0
2014-Oct-28 15:31N 37°57' E 023°38'0 0.0
2014-Oct-28 14:31N 37°57' E 023°38'0 0.0
2014-Oct-28 13:31N 37°57' E 023°38'0 0.0
2014-Oct-28 12:31N 37°57' E 023°38'0 0.0
2014-Oct-28 11:31N 37°57' E 023°38'0 0.0
2014-Oct-28 10:31N 37°57' E 023°38'0 0.0
2014-Oct-28 09:31N 37°57' E 023°38'0 0.0
2014-Oct-28 08:31N 37°57' E 023°38'0 0.0
2014-Oct-28 07:31N 37°57' E 023°38'0 0.0
2014-Oct-28 06:31N 37°57' E 023°38'0 0.0
2014-Oct-28 05:31N 37°57' E 023°38'0 0.0
2014-Oct-28 04:34N 37°57' E 023°38'1515.2
2014-Oct-28 03:33N 37°42' E 023°45'2920.0
2014-Oct-28 02:08N 37°16' E 023°58'1120.0
2014-Oct-28 01:33N 37°05' E 024°03'1919.0
2014-Oct-28 00:33N 36°47' E 024°11'2019.8
2014-Oct-27 23:32N 36°29' E 024°21'2020.1
2014-Oct-27 22:33N 36°12' E 024°33'2020.0
2014-Oct-27 21:33N 35°54' E 024°46'2019.9
2014-Oct-27 20:33N 35°37' E 024°59'18 1.2
2014-Oct-27 04:33N 35°21' E 025°09'1615.5
2014-Oct-27 03:32N 35°35' E 025°00'1818.4
2014-Oct-27 02:33N 35°50' E 024°49'1918.7
2014-Oct-27 01:33N 36°06' E 024°37'1818.3
2014-Oct-27 00:33N 36°22' E 024°25'1918.5
2014-Oct-26 23:33N 36°38' E 024°14'1918.8
2014-Oct-26 22:33N 36°56' E 024°05'4319.0
2014-Oct-26 20:20N 37°35' E 023°45'1519.2
2014-Oct-26 19:33N 37°49' E 023°38'8 7.7
2014-Oct-26 18:33N 37°57' E 023°38'0 0.0
2014-Oct-26 17:33N 37°57' E 023°38'0 0.0
2014-Oct-26 16:33N 37°57' E 023°38'0 0.0
2014-Oct-26 15:33N 37°57' E 023°38'0 0.0
2014-Oct-26 14:33N 37°57' E 023°38'0 0.0
2014-Oct-26 13:33N 37°57' E 023°38'0 0.0
2014-Oct-26 12:33N 37°57' E 023°38'0 0.0
2014-Oct-26 11:33N 37°57' E 023°38'0 0.0
2014-Oct-26 10:33N 37°57' E 023°38'0 0.0
2014-Oct-26 09:33N 37°57' E 023°38'0 0.0
2014-Oct-26 08:33N 37°57' E 023°38'0 0.0
2014-Oct-26 07:33N 37°57' E 023°38'0 0.0
2014-Oct-26 06:33N 37°57' E 023°38'0 0.0
2014-Oct-26 05:33N 37°57' E 023°38'1 1.1
2014-Oct-26 04:33N 37°56' E 023°37'1515.4
2014-Oct-26 03:33N 37°42' E 023°45'3717.9
2014-Oct-26 01:30N 37°08' E 024°01'1717.7
2014-Oct-26 00:33N 36°52' E 024°08'1818.0
2014-Oct-25 23:33N 36°35' E 024°17'1818.1
2014-Oct-25 22:33N 36°19' E 024°28'1817.8
2014-Oct-25 21:33N 36°04' E 024°39'1717.2
2014-Oct-25 20:33N 35°49' E 024°50'1716.9
2014-Oct-25 19:33N 35°35' E 025°00'5 0.3
2014-Oct-25 02:33N 35°39' E 024°57'1919.4
2014-Oct-25 01:33N 35°56' E 024°45'1918.9
2014-Oct-25 00:33N 36°12' E 024°33'1918.7
2014-Oct-24 23:33N 36°28' E 024°21'1918.6
2014-Oct-24 22:33N 36°44' E 024°11'1918.5
2014-Oct-24 21:33N 37°02' E 024°03'2919.5
2014-Oct-24 20:05N 37°28' E 023°49'1119.9
2014-Oct-24 19:33N 37°38' E 023°43'1818.5
2014-Oct-24 18:33N 37°55' E 023°37'2 1.6
2014-Oct-24 17:33N 37°57' E 023°38'0 0.0
2014-Oct-24 16:33N 37°57' E 023°38'0 0.0
2014-Oct-24 15:33N 37°57' E 023°38'0 0.0
2014-Oct-24 14:33N 37°57' E 023°38'0 0.0
2014-Oct-24 13:33N 37°57' E 023°38'0 0.0
2014-Oct-24 12:33N 37°57' E 023°38'0 0.0
2014-Oct-24 11:33N 37°57' E 023°38'0 0.0
2014-Oct-24 10:33N 37°57' E 023°38'0 0.0
2014-Oct-24 09:33N 37°57' E 023°38'0 0.0
2014-Oct-24 08:33N 37°57' E 023°38'0 0.0
2014-Oct-24 07:33N 37°57' E 023°38'0 0.0
2014-Oct-24 06:33N 37°57' E 023°38'0 0.0
2014-Oct-24 05:33N 37°57' E 023°38'0 0.0
2014-Oct-24 04:33N 37°57' E 023°38'0 0.0
2014-Oct-24 03:33N 37°57' E 023°38'1010.5
2014-Oct-24 02:33N 37°47' E 023°43'4420.8
2014-Oct-24 00:27N 37°06' E 024°02'2020.9
2014-Oct-23 23:30N 36°47' E 024°11'2020.5
2014-Oct-23 22:33N 36°30' E 024°21'2120.6
2014-Oct-23 21:33N 36°12' E 024°34'2020.0
2014-Oct-23 20:33N 35°54' E 024°46'2019.9
2014-Oct-23 19:33N 35°37' E 024°59'19 2.3
2014-Oct-23 11:31N 35°21' E 025°09'0 0.0
2014-Oct-23 10:32N 35°21' E 025°09'0 0.0
2014-Oct-23 09:22N 35°21' E 025°09'0 0.0
2014-Oct-23 08:29N 35°21' E 025°09'0 0.0
2014-Oct-23 07:15N 35°21' E 025°09'0 0.0
2014-Oct-23 06:33N 35°21' E 025°09'0 0.0
2014-Oct-23 05:33N 35°21' E 025°09'0 0.0
2014-Oct-23 04:27N 35°21' E 025°09'0 0.0
2014-Oct-23 03:33N 35°21' E 025°09'1212.5
2014-Oct-23 02:33N 35°32' E 025°02'1919.0
2014-Oct-23 01:33N 35°48' E 024°50'1919.1
2014-Oct-23 00:33N 36°05' E 024°39'2019.8
2014-Oct-22 23:33N 36°22' E 024°27'2019.5
2014-Oct-22 22:33N 36°39' E 024°15'1919.2
2014-Oct-22 21:33N 36°57' E 024°05'4419.1
2014-Oct-22 19:15N 37°38' E 023°44'1318.5
2014-Oct-22 18:33N 37°49' E 023°37'7 7.4
2014-Oct-22 17:33N 37°57' E 023°38'0 0.0
2014-Oct-22 16:31N 37°57' E 023°38'0 0.0
2014-Oct-22 15:31N 37°57' E 023°38'0 0.0
2014-Oct-22 14:31N 37°57' E 023°38'0 0.0
2014-Oct-22 13:31N 37°57' E 023°38'0 0.0
2014-Oct-22 12:31N 37°57' E 023°38'0 0.0
2014-Oct-22 11:31N 37°57' E 023°38'0 0.0
2014-Oct-22 10:31N 37°57' E 023°38'0 0.0
2014-Oct-22 09:31N 37°57' E 023°38'0 0.0
2014-Oct-22 08:31N 37°57' E 023°38'0 0.0
2014-Oct-22 07:31N 37°57' E 023°38'0 0.0
2014-Oct-22 06:31N 37°57' E 023°38'0 0.0
2014-Oct-22 05:31N 37°57' E 023°38'0 0.0
2014-Oct-22 04:31N 37°57' E 023°38'0 0.1
2014-Oct-22 03:34N 37°57' E 023°38'1413.9
2014-Oct-22 02:33N 37°43' E 023°44'3919.5
2014-Oct-22 00:33N 37°07' E 024°01'2120.1
2014-Oct-21 23:31N 36°47' E 024°11'1920.0
2014-Oct-21 22:33N 36°30' E 024°21'2019.8
2014-Oct-21 21:33N 36°13' E 024°33'2020.1
2014-Oct-21 20:33N 35°55' E 024°45'2020.4
2014-Oct-21 19:33N 35°38' E 024°58'1918.8
2014-Oct-21 18:33N 35°21' E 025°09'0 0.3
2014-Oct-21 17:33N 35°21' E 025°09'0 0.0
2014-Oct-21 16:34N 35°21' E 025°09'0 0.0
2014-Oct-21 15:33N 35°21' E 025°09'0 0.0
2014-Oct-21 14:33N 35°21' E 025°09'0 0.0
2014-Oct-21 13:05N 35°21' E 025°09'0 0.0
2014-Oct-21 11:06N 35°21' E 025°09'  

Dump ship's entire track history